This is the latest recevied weather packets stored in our database for station/object IW2NIA-3. If no packets are shown the sender has not sent any weather packets the latest 10 day(s).
| Time | Temp. | Humidity | Pressure | Rain* | Wind** | Luminosity | Snow |
|---|---|---|---|---|---|---|---|
| 1777704510 | 15.56° C | 63% | 1025.8 hPa | 0 mm | - | - | - |
| 1777703627 | 15° C | 66% | 1025.7 hPa | 0 mm | - | - | - |
| 1777702720 | 14.44° C | 69% | 1025.8 hPa | 0 mm | - | - | - |
| 1777701815 | 13.89° C | 72% | 1025.6 hPa | 0 mm | - | - | - |
| 1777700911 | 12.78° C | 75% | 1025.7 hPa | 0 mm | - | - | - |
| 1777700005 | 11.67° C | 80% | 1025.7 hPa | 0 mm | - | - | - |
| 1777699121 | 10° C | 82% | 1025.7 hPa | 0 mm | - | - | - |
| 1777698219 | 9.44° C | 83% | 1025.6 hPa | 0 mm | - | - | - |
| 1777697313 | 8.33° C | 83% | 1025.5 hPa | 0 mm | - | - | - |
| 1777696427 | 8.33° C | 83% | 1025.6 hPa | 0 mm | - | - | - |
| 1777695523 | 8.33° C | 83% | 1025.5 hPa | 0 mm | - | - | - |
| 1777694619 | 8.33° C | 82% | 1025.5 hPa | 0 mm | - | - | - |
| 1777693713 | 8.33° C | 82% | 1025.5 hPa | 0 mm | - | - | - |
| 1777692824 | 8.33° C | 83% | 1025.5 hPa | 0 mm | - | - | - |
| 1777691918 | 8.33° C | 82% | 1025.4 hPa | 0 mm | - | - | - |
| 1777691011 | 8.33° C | 82% | 1025.5 hPa | 0 mm | - | - | - |
| 1777690112 | 8.33° C | 81% | 1025.4 hPa | 0 mm | - | - | - |
| 1777689227 | 8.33° C | 81% | 1025.4 hPa | 0 mm | - | - | - |
| 1777688318 | 8.89° C | 81% | 1025.4 hPa | 0 mm | - | - | - |
| 1777687413 | 8.89° C | 80% | 1025.3 hPa | 0 mm | - | - | - |
| 1777686523 | 8.89° C | 80% | 1025.3 hPa | 0 mm | - | - | - |
| 1777685612 | 8.89° C | 80% | 1025.3 hPa | 0 mm | - | - | - |
| 1777684722 | 8.89° C | 80% | 1025.3 hPa | 0 mm | - | - | - |
| 1777683815 | 8.89° C | 80% | 1025.2 hPa | 0 mm | - | - | - |
| 1777682912 | 8.89° C | 80% | 1025.4 hPa | 0 mm | - | - | - |
* Rain latest hour (hover to see other rain measurements)
** Current wind speed in m/s (hover to see current wind gust speed)